sensor_id;sensor_type;location;lat;lon;timestamp;P1;durP1;ratioP1;P2;durP2;ratioP2
8735;SDS011;4404;49.308;12.178;2022-10-19T00:00:03;0.70;;;0.70;;
8735;SDS011;4404;49.308;12.178;2022-10-19T00:06:13;0.80;;;0.80;;
8735;SDS011;4404;49.308;12.178;2022-10-19T00:12:17;0.80;;;0.80;;
8735;SDS011;4404;49.308;12.178;2022-10-19T00:18:20;0.80;;;0.80;;
8735;SDS011;4404;49.308;12.178;2022-10-19T00:24:24;0.70;;;0.70;;
8735;SDS011;4404;49.308;12.178;2022-10-19T00:30:26;0.70;;;0.70;;
8735;SDS011;4404;49.308;12.178;2022-10-19T00:36:29;0.80;;;0.80;;
8735;SDS011;4404;49.308;12.178;2022-10-19T00:42:35;0.80;;;0.80;;
8735;SDS011;4404;49.308;12.178;2022-10-19T00:48:37;0.80;;;0.80;;
8735;SDS011;4404;49.308;12.178;2022-10-19T00:54:41;0.80;;;0.80;;
8735;SDS011;4404;49.308;12.178;2022-10-19T01:00:48;0.80;;;0.80;;
8735;SDS011;4404;49.308;12.178;2022-10-19T01:06:50;0.80;;;0.80;;
8735;SDS011;4404;49.308;12.178;2022-10-19T01:13:01;0.80;;;0.80;;
8735;SDS011;4404;49.308;12.178;2022-10-19T01:19:24;0.80;;;0.80;;
8735;SDS011;4404;49.308;12.178;2022-10-19T01:25:48;0.80;;;0.80;;
8735;SDS011;4404;49.308;12.178;2022-10-19T01:32:01;0.80;;;0.80;;
8735;SDS011;4404;49.308;12.178;2022-10-19T01:38:13;0.80;;;0.80;;
8735;SDS011;4404;49.308;12.178;2022-10-19T01:44:24;0.70;;;0.70;;
8735;SDS011;4404;49.308;12.178;2022-10-19T01:50:37;0.70;;;0.70;;
8735;SDS011;4404;49.308;12.178;2022-10-19T01:56:45;0.80;;;0.80;;
8735;SDS011;4404;49.308;12.178;2022-10-19T02:02:51;0.80;;;0.80;;
8735;SDS011;4404;49.308;12.178;2022-10-19T02:08:56;0.80;;;0.80;;
8735;SDS011;4404;49.308;12.178;2022-10-19T02:14:59;0.80;;;0.80;;
8735;SDS011;4404;49.308;12.178;2022-10-19T02:21:08;0.80;;;0.80;;
8735;SDS011;4404;49.308;12.178;2022-10-19T02:27:12;0.80;;;0.80;;
8735;SDS011;4404;49.308;12.178;2022-10-19T02:33:14;0.80;;;0.80;;
8735;SDS011;4404;49.308;12.178;2022-10-19T02:39:17;0.70;;;0.70;;
8735;SDS011;4404;49.308;12.178;2022-10-19T02:45:23;0.80;;;0.80;;
8735;SDS011;4404;49.308;12.178;2022-10-19T02:51:30;0.80;;;0.80;;
8735;SDS011;4404;49.308;12.178;2022-10-19T02:57:34;0.80;;;0.80;;
8735;SDS011;4404;49.308;12.178;2022-10-19T03:03:38;0.70;;;0.70;;
8735;SDS011;4404;49.308;12.178;2022-10-19T03:09:41;0.70;;;0.70;;
8735;SDS011;4404;49.308;12.178;2022-10-19T03:15:44;0.70;;;0.70;;
8735;SDS011;4404;49.308;12.178;2022-10-19T03:21:48;0.80;;;0.80;;
8735;SDS011;4404;49.308;12.178;2022-10-19T03:27:51;0.80;;;0.80;;
8735;SDS011;4404;49.308;12.178;2022-10-19T03:33:53;0.80;;;0.80;;
8735;SDS011;4404;49.308;12.178;2022-10-19T03:39:57;0.80;;;0.80;;
8735;SDS011;4404;49.308;12.178;2022-10-19T03:46:00;0.70;;;0.70;;
8735;SDS011;4404;49.308;12.178;2022-10-19T03:52:03;0.80;;;0.80;;
8735;SDS011;4404;49.308;12.178;2022-10-19T03:58:06;0.70;;;0.70;;
8735;SDS011;4404;49.308;12.178;2022-10-19T04:04:10;0.70;;;0.70;;
8735;SDS011;4404;49.308;12.178;2022-10-19T04:10:15;0.80;;;0.80;;
8735;SDS011;4404;49.308;12.178;2022-10-19T04:16:19;0.80;;;0.80;;
8735;SDS011;4404;49.308;12.178;2022-10-19T04:22:23;0.70;;;0.70;;
8735;SDS011;4404;49.308;12.178;2022-10-19T04:28:25;0.70;;;0.70;;
8735;SDS011;4404;49.308;12.178;2022-10-19T04:34:29;0.80;;;0.80;;
8735;SDS011;4404;49.308;12.178;2022-10-19T04:40:33;0.80;;;0.80;;
8735;SDS011;4404;49.308;12.178;2022-10-19T04:46:36;0.70;;;0.70;;
8735;SDS011;4404;49.308;12.178;2022-10-19T04:52:41;0.80;;;0.80;;
8735;SDS011;4404;49.308;12.178;2022-10-19T04:58:46;0.70;;;0.70;;
8735;SDS011;4404;49.308;12.178;2022-10-19T05:04:49;0.80;;;0.80;;
8735;SDS011;4404;49.308;12.178;2022-10-19T05:10:52;0.80;;;0.80;;
8735;SDS011;4404;49.308;12.178;2022-10-19T05:16:55;0.70;;;0.70;;
8735;SDS011;4404;49.308;12.178;2022-10-19T05:22:57;0.80;;;0.80;;
8735;SDS011;4404;49.308;12.178;2022-10-19T05:29:01;0.97;;;0.97;;
8735;SDS011;4404;49.308;12.178;2022-10-19T05:35:04;0.80;;;0.80;;
8735;SDS011;4404;49.308;12.178;2022-10-19T05:41:07;0.80;;;0.80;;
8735;SDS011;4404;49.308;12.178;2022-10-19T05:47:11;0.80;;;0.80;;
8735;SDS011;4404;49.308;12.178;2022-10-19T05:53:13;0.70;;;0.70;;
8735;SDS011;4404;49.308;12.178;2022-10-19T05:59:16;0.70;;;0.70;;
8735;SDS011;4404;49.308;12.178;2022-10-19T06:05:22;0.80;;;0.80;;
8735;SDS011;4404;49.308;12.178;2022-10-19T06:11:25;0.80;;;0.80;;
8735;SDS011;4404;49.308;12.178;2022-10-19T06:17:29;0.80;;;0.80;;
8735;SDS011;4404;49.308;12.178;2022-10-19T06:23:33;0.70;;;0.70;;
8735;SDS011;4404;49.308;12.178;2022-10-19T06:29:36;0.80;;;0.80;;
8735;SDS011;4404;49.308;12.178;2022-10-19T06:35:38;0.80;;;0.80;;
8735;SDS011;4404;49.308;12.178;2022-10-19T06:41:43;0.80;;;0.80;;
8735;SDS011;4404;49.308;12.178;2022-10-19T06:47:45;0.80;;;0.80;;
8735;SDS011;4404;49.308;12.178;2022-10-19T06:53:48;0.80;;;0.80;;
8735;SDS011;4404;49.308;12.178;2022-10-19T06:59:52;0.80;;;0.80;;
8735;SDS011;4404;49.308;12.178;2022-10-19T07:05:55;0.80;;;0.80;;
8735;SDS011;4404;49.308;12.178;2022-10-19T07:12:00;0.80;;;0.80;;
8735;SDS011;4404;49.308;12.178;2022-10-19T07:18:04;0.80;;;0.80;;
8735;SDS011;4404;49.308;12.178;2022-10-19T07:24:06;0.80;;;0.80;;
8735;SDS011;4404;49.308;12.178;2022-10-19T07:30:09;0.80;;;0.80;;
8735;SDS011;4404;49.308;12.178;2022-10-19T07:36:13;0.80;;;0.80;;
8735;SDS011;4404;49.308;12.178;2022-10-19T07:42:16;0.80;;;0.80;;
8735;SDS011;4404;49.308;12.178;2022-10-19T08:31:55;0.80;;;0.80;;
8735;SDS011;4404;49.308;12.178;2022-10-19T08:38:01;0.70;;;0.70;;
8735;SDS011;4404;49.308;12.178;2022-10-19T08:51:16;0.70;;;0.70;;
8735;SDS011;4404;49.308;12.178;2022-10-19T08:57:38;0.80;;;0.80;;
8735;SDS011;4404;49.308;12.178;2022-10-19T09:04:14;0.80;;;0.80;;
8735;SDS011;4404;49.308;12.178;2022-10-19T09:10:43;0.80;;;0.80;;
8735;SDS011;4404;49.308;12.178;2022-10-19T09:24:33;0.80;;;0.80;;
8735;SDS011;4404;49.308;12.178;2022-10-19T09:31:14;0.70;;;0.70;;
8735;SDS011;4404;49.308;12.178;2022-10-19T09:37:36;0.70;;;0.70;;
8735;SDS011;4404;49.308;12.178;2022-10-19T09:44:43;0.70;;;0.70;;
8735;SDS011;4404;49.308;12.178;2022-10-19T09:51:29;0.77;;;0.77;;
8735;SDS011;4404;49.308;12.178;2022-10-19T09:57:58;0.80;;;0.80;;
8735;SDS011;4404;49.308;12.178;2022-10-19T10:04:13;0.70;;;0.70;;
8735;SDS011;4404;49.308;12.178;2022-10-19T10:10:41;0.70;;;0.70;;
8735;SDS011;4404;49.308;12.178;2022-10-19T10:17:35;0.70;;;0.70;;
8735;SDS011;4404;49.308;12.178;2022-10-19T10:24:09;0.70;;;0.70;;
8735;SDS011;4404;49.308;12.178;2022-10-19T10:30:32;0.60;;;0.60;;
8735;SDS011;4404;49.308;12.178;2022-10-19T10:37:14;0.70;;;0.70;;
8735;SDS011;4404;49.308;12.178;2022-10-19T10:43:47;0.70;;;0.70;;
8735;SDS011;4404;49.308;12.178;2022-10-19T10:50:33;0.70;;;0.70;;
8735;SDS011;4404;49.308;12.178;2022-10-19T10:56:58;0.80;;;0.80;;
8735;SDS011;4404;49.308;12.178;2022-10-19T11:03:22;0.70;;;0.70;;
8735;SDS011;4404;49.308;12.178;2022-10-19T11:09:47;0.70;;;0.70;;
8735;SDS011;4404;49.308;12.178;2022-10-19T11:16:08;0.70;;;0.70;;
8735;SDS011;4404;49.308;12.178;2022-10-19T11:22:39;0.70;;;0.70;;
8735;SDS011;4404;49.308;12.178;2022-10-19T11:29:13;0.70;;;0.70;;
8735;SDS011;4404;49.308;12.178;2022-10-19T11:35:52;0.70;;;0.70;;
8735;SDS011;4404;49.308;12.178;2022-10-19T11:48:56;0.70;;;0.70;;
8735;SDS011;4404;49.308;12.178;2022-10-19T11:55:26;0.77;;;0.77;;
8735;SDS011;4404;49.308;12.178;2022-10-19T12:01:48;0.70;;;0.70;;
8735;SDS011;4404;49.308;12.178;2022-10-19T12:15:14;0.70;;;0.70;;
8735;SDS011;4404;49.308;12.178;2022-10-19T12:21:30;0.70;;;0.70;;
8735;SDS011;4404;49.308;12.178;2022-10-19T12:34:21;0.70;;;0.70;;
8735;SDS011;4404;49.308;12.178;2022-10-19T12:40:49;0.60;;;0.60;;
8735;SDS011;4404;49.308;12.178;2022-10-19T12:47:14;0.70;;;0.70;;
8735;SDS011;4404;49.308;12.178;2022-10-19T12:53:30;0.70;;;0.70;;
8735;SDS011;4404;49.308;12.178;2022-10-19T12:59:37;0.60;;;0.60;;
8735;SDS011;4404;49.308;12.178;2022-10-19T13:05:40;0.70;;;0.70;;
8735;SDS011;4404;49.308;12.178;2022-10-19T13:25:30;0.60;;;0.60;;
8735;SDS011;4404;49.308;12.178;2022-10-19T13:31:39;0.70;;;0.70;;
8735;SDS011;4404;49.308;12.178;2022-10-19T13:37:42;0.60;;;0.60;;
8735;SDS011;4404;49.308;12.178;2022-10-19T13:43:54;0.60;;;0.60;;
8735;SDS011;4404;49.308;12.178;2022-10-19T13:50:10;0.60;;;0.60;;
8735;SDS011;4404;49.308;12.178;2022-10-19T13:56:45;0.60;;;0.60;;
8735;SDS011;4404;49.308;12.178;2022-10-19T14:03:34;0.50;;;0.50;;
8735;SDS011;4404;49.308;12.178;2022-10-19T14:10:10;0.70;;;0.70;;
8735;SDS011;4404;49.308;12.178;2022-10-19T14:16:44;0.70;;;0.70;;
8735;SDS011;4404;49.308;12.178;2022-10-19T14:22:55;0.60;;;0.60;;
8735;SDS011;4404;49.308;12.178;2022-10-19T14:29:42;0.60;;;0.60;;
8735;SDS011;4404;49.308;12.178;2022-10-19T14:35:48;0.60;;;0.60;;
8735;SDS011;4404;49.308;12.178;2022-10-19T14:41:53;0.70;;;0.70;;
8735;SDS011;4404;49.308;12.178;2022-10-19T14:47:57;0.70;;;0.70;;
8735;SDS011;4404;49.308;12.178;2022-10-19T14:54:12;0.70;;;0.70;;
8735;SDS011;4404;49.308;12.178;2022-10-19T15:00:55;0.60;;;0.60;;
8735;SDS011;4404;49.308;12.178;2022-10-19T15:07:17;0.60;;;0.60;;
8735;SDS011;4404;49.308;12.178;2022-10-19T15:13:52;0.60;;;0.60;;
8735;SDS011;4404;49.308;12.178;2022-10-19T15:20:21;0.70;;;0.70;;
8735;SDS011;4404;49.308;12.178;2022-10-19T15:26:41;0.70;;;0.70;;
8735;SDS011;4404;49.308;12.178;2022-10-19T15:33:23;0.70;;;0.70;;
8735;SDS011;4404;49.308;12.178;2022-10-19T15:40:00;0.70;;;0.70;;
8735;SDS011;4404;49.308;12.178;2022-10-19T15:46:51;0.70;;;0.70;;
8735;SDS011;4404;49.308;12.178;2022-10-19T15:53:36;0.70;;;0.70;;
8735;SDS011;4404;49.308;12.178;2022-10-19T15:59:59;0.70;;;0.70;;
8735;SDS011;4404;49.308;12.178;2022-10-19T16:06:26;0.70;;;0.70;;
8735;SDS011;4404;49.308;12.178;2022-10-19T16:12:47;0.70;;;0.70;;
8735;SDS011;4404;49.308;12.178;2022-10-19T16:19:08;0.70;;;0.70;;
8735;SDS011;4404;49.308;12.178;2022-10-19T16:25:26;0.80;;;0.80;;
8735;SDS011;4404;49.308;12.178;2022-10-19T16:31:42;0.70;;;0.70;;
8735;SDS011;4404;49.308;12.178;2022-10-19T16:38:03;0.80;;;0.80;;
8735;SDS011;4404;49.308;12.178;2022-10-19T16:44:17;0.70;;;0.70;;
8735;SDS011;4404;49.308;12.178;2022-10-19T16:50:37;0.70;;;0.70;;
8735;SDS011;4404;49.308;12.178;2022-10-19T16:56:49;0.80;;;0.80;;
8735;SDS011;4404;49.308;12.178;2022-10-19T17:02:51;0.80;;;0.80;;
8735;SDS011;4404;49.308;12.178;2022-10-19T17:08:54;0.80;;;0.80;;
8735;SDS011;4404;49.308;12.178;2022-10-19T17:14:59;0.80;;;0.80;;
8735;SDS011;4404;49.308;12.178;2022-10-19T17:21:02;0.80;;;0.80;;
8735;SDS011;4404;49.308;12.178;2022-10-19T17:27:07;0.80;;;0.80;;
8735;SDS011;4404;49.308;12.178;2022-10-19T17:33:10;0.80;;;0.80;;
8735;SDS011;4404;49.308;12.178;2022-10-19T17:39:14;0.80;;;0.80;;
8735;SDS011;4404;49.308;12.178;2022-10-19T17:45:18;0.80;;;0.80;;
8735;SDS011;4404;49.308;12.178;2022-10-19T17:51:23;0.70;;;0.70;;
8735;SDS011;4404;49.308;12.178;2022-10-19T17:57:28;0.80;;;0.80;;
8735;SDS011;4404;49.308;12.178;2022-10-19T18:03:35;0.80;;;0.80;;
8735;SDS011;4404;49.308;12.178;2022-10-19T18:09:40;0.80;;;0.80;;
8735;SDS011;4404;49.308;12.178;2022-10-19T18:15:43;0.80;;;0.80;;
8735;SDS011;4404;49.308;12.178;2022-10-19T18:21:46;0.80;;;0.80;;
8735;SDS011;4404;49.308;12.178;2022-10-19T18:27:49;0.80;;;0.80;;
8735;SDS011;4404;49.308;12.178;2022-10-19T18:33:54;0.80;;;0.80;;
8735;SDS011;4404;49.308;12.178;2022-10-19T18:39:58;0.80;;;0.80;;
8735;SDS011;4404;49.308;12.178;2022-10-19T18:46:02;0.80;;;0.80;;
8735;SDS011;4404;49.308;12.178;2022-10-19T18:52:05;0.80;;;0.80;;
8735;SDS011;4404;49.308;12.178;2022-10-19T18:58:08;0.80;;;0.80;;
8735;SDS011;4404;49.308;12.178;2022-10-19T19:04:13;0.80;;;0.80;;
8735;SDS011;4404;49.308;12.178;2022-10-19T19:10:15;0.80;;;0.80;;
8735;SDS011;4404;49.308;12.178;2022-10-19T19:16:18;0.80;;;0.80;;
8735;SDS011;4404;49.308;12.178;2022-10-19T19:22:22;0.77;;;0.77;;
8735;SDS011;4404;49.308;12.178;2022-10-19T19:28:25;0.80;;;0.80;;
8735;SDS011;4404;49.308;12.178;2022-10-19T19:34:27;0.70;;;0.70;;
8735;SDS011;4404;49.308;12.178;2022-10-19T19:40:31;0.80;;;0.80;;
8735;SDS011;4404;49.308;12.178;2022-10-19T19:46:33;0.80;;;0.80;;
8735;SDS011;4404;49.308;12.178;2022-10-19T19:52:37;0.80;;;0.80;;
8735;SDS011;4404;49.308;12.178;2022-10-19T19:58:41;0.80;;;0.80;;
8735;SDS011;4404;49.308;12.178;2022-10-19T20:04:45;0.90;;;0.90;;
8735;SDS011;4404;49.308;12.178;2022-10-19T20:10:48;0.90;;;0.90;;
8735;SDS011;4404;49.308;12.178;2022-10-19T20:16:52;0.80;;;0.80;;
8735;SDS011;4404;49.308;12.178;2022-10-19T20:22:54;0.80;;;0.80;;
8735;SDS011;4404;49.308;12.178;2022-10-19T20:28:57;0.80;;;0.80;;
8735;SDS011;4404;49.308;12.178;2022-10-19T20:35:03;0.80;;;0.80;;
8735;SDS011;4404;49.308;12.178;2022-10-19T20:41:07;0.80;;;0.80;;
8735;SDS011;4404;49.308;12.178;2022-10-19T20:47:10;0.80;;;0.80;;
8735;SDS011;4404;49.308;12.178;2022-10-19T20:53:14;0.80;;;0.80;;
8735;SDS011;4404;49.308;12.178;2022-10-19T20:59:17;0.80;;;0.80;;
8735;SDS011;4404;49.308;12.178;2022-10-19T21:05:21;0.80;;;0.80;;
8735;SDS011;4404;49.308;12.178;2022-10-19T21:11:26;0.80;;;0.80;;
8735;SDS011;4404;49.308;12.178;2022-10-19T21:17:30;0.80;;;0.80;;
8735;SDS011;4404;49.308;12.178;2022-10-19T21:23:32;0.80;;;0.80;;
8735;SDS011;4404;49.308;12.178;2022-10-19T21:29:36;0.80;;;0.80;;
8735;SDS011;4404;49.308;12.178;2022-10-19T21:35:38;0.80;;;0.80;;
8735;SDS011;4404;49.308;12.178;2022-10-19T21:41:41;0.80;;;0.80;;
8735;SDS011;4404;49.308;12.178;2022-10-19T21:47:46;0.80;;;0.80;;
8735;SDS011;4404;49.308;12.178;2022-10-19T21:53:48;0.80;;;0.80;;
8735;SDS011;4404;49.308;12.178;2022-10-19T21:59:53;0.80;;;0.80;;
8735;SDS011;4404;49.308;12.178;2022-10-19T22:05:57;0.80;;;0.80;;
8735;SDS011;4404;49.308;12.178;2022-10-19T22:11:59;0.90;;;0.90;;
8735;SDS011;4404;49.308;12.178;2022-10-19T22:18:02;0.90;;;0.90;;
8735;SDS011;4404;49.308;12.178;2022-10-19T22:24:06;0.80;;;0.80;;
8735;SDS011;4404;49.308;12.178;2022-10-19T22:30:12;0.80;;;0.80;;
8735;SDS011;4404;49.308;12.178;2022-10-19T22:36:14;0.80;;;0.80;;
8735;SDS011;4404;49.308;12.178;2022-10-19T22:42:18;0.80;;;0.80;;
8735;SDS011;4404;49.308;12.178;2022-10-19T22:48:21;0.80;;;0.80;;
8735;SDS011;4404;49.308;12.178;2022-10-19T22:54:23;0.90;;;0.90;;
8735;SDS011;4404;49.308;12.178;2022-10-19T23:00:27;0.87;;;0.87;;
8735;SDS011;4404;49.308;12.178;2022-10-19T23:06:30;0.80;;;0.80;;
8735;SDS011;4404;49.308;12.178;2022-10-19T23:12:32;0.80;;;0.80;;
8735;SDS011;4404;49.308;12.178;2022-10-19T23:18:37;0.83;;;0.83;;
8735;SDS011;4404;49.308;12.178;2022-10-19T23:24:42;0.80;;;0.80;;
8735;SDS011;4404;49.308;12.178;2022-10-19T23:30:45;0.80;;;0.80;;
8735;SDS011;4404;49.308;12.178;2022-10-19T23:36:48;0.90;;;0.90;;
8735;SDS011;4404;49.308;12.178;2022-10-19T23:42:51;0.80;;;0.80;;
8735;SDS011;4404;49.308;12.178;2022-10-19T23:48:53;0.90;;;0.90;;
8735;SDS011;4404;49.308;12.178;2022-10-19T23:54:57;0.80;;;0.80;;
